sensor_id;sensor_type;location;lat;lon;timestamp;pressure;altitude;pressure_sealevel;temperature;humidity
42105;BME280;61464;51.472;5.712;2022-10-16T00:01:23;100862.88;;;11.78;100.00
42105;BME280;61464;51.472;5.712;2022-10-16T00:03:50;100857.84;;;11.76;100.00
42105;BME280;61464;51.472;5.712;2022-10-16T00:06:19;100857.69;;;11.78;100.00
42105;BME280;61464;51.472;5.712;2022-10-16T00:08:46;100856.69;;;11.79;100.00
42105;BME280;61464;51.472;5.712;2022-10-16T00:11:19;100856.03;;;11.68;100.00
42105;BME280;61464;51.472;5.712;2022-10-16T00:13:47;100855.59;;;11.73;100.00
42105;BME280;61464;51.472;5.712;2022-10-16T00:16:14;100854.94;;;11.71;100.00
42105;BME280;61464;51.472;5.712;2022-10-16T00:18:40;100848.44;;;11.67;100.00
42105;BME280;61464;51.472;5.712;2022-10-16T00:21:14;100856.88;;;11.69;100.00
42105;BME280;61464;51.472;5.712;2022-10-16T00:23:41;100859.16;;;11.72;100.00
42105;BME280;61464;51.472;5.712;2022-10-16T00:26:11;100858.34;;;11.72;100.00
42105;BME280;61464;51.472;5.712;2022-10-16T00:28:38;100860.59;;;11.75;100.00
42105;BME280;61464;51.472;5.712;2022-10-16T00:31:10;100850.03;;;11.68;100.00
42105;BME280;61464;51.472;5.712;2022-10-16T00:33:37;100846.78;;;11.58;100.00
42105;BME280;61464;51.472;5.712;2022-10-16T00:36:05;100855.91;;;11.54;100.00
42105;BME280;61464;51.472;5.712;2022-10-16T00:38:31;100843.69;;;11.54;100.00
42105;BME280;61464;51.472;5.712;2022-10-16T00:40:57;100845.34;;;11.47;100.00
42105;BME280;61464;51.472;5.712;2022-10-16T00:43:42;100853.94;;;11.47;100.00
42105;BME280;61464;51.472;5.712;2022-10-16T00:46:29;100854.28;;;11.53;100.00
42105;BME280;61464;51.472;5.712;2022-10-16T00:49:29;100863.69;;;11.45;100.00
42105;BME280;61464;51.472;5.712;2022-10-16T00:51:55;100869.38;;;11.33;100.00
42105;BME280;61464;51.472;5.712;2022-10-16T00:54:29;100865.78;;;11.25;100.00
42105;BME280;61464;51.472;5.712;2022-10-16T00:57:00;100860.41;;;11.27;100.00
42105;BME280;61464;51.472;5.712;2022-10-16T00:59:36;100867.06;;;11.30;100.00
42105;BME280;61464;51.472;5.712;2022-10-16T01:02:09;100868.72;;;11.31;100.00
42105;BME280;61464;51.472;5.712;2022-10-16T01:04:50;100865.78;;;11.34;100.00
42105;BME280;61464;51.472;5.712;2022-10-16T01:07:48;100865.31;;;11.22;100.00
42105;BME280;61464;51.472;5.712;2022-10-16T01:13:35;100857.97;;;11.17;100.00
42105;BME280;61464;51.472;5.712;2022-10-16T01:16:16;100849.72;;;11.22;100.00
42105;BME280;61464;51.472;5.712;2022-10-16T01:18:54;100847.56;;;11.09;100.00
42105;BME280;61464;51.472;5.712;2022-10-16T01:21:33;100847.09;;;11.14;100.00
42105;BME280;61464;51.472;5.712;2022-10-16T01:27:25;100839.44;;;10.96;100.00
42105;BME280;61464;51.472;5.712;2022-10-16T01:30:12;100843.16;;;10.93;100.00
42105;BME280;61464;51.472;5.712;2022-10-16T01:33:21;100845.13;;;10.99;100.00
42105;BME280;61464;51.472;5.712;2022-10-16T01:35:54;100848.81;;;10.88;100.00
42105;BME280;61464;51.472;5.712;2022-10-16T01:38:37;100850.59;;;10.88;100.00
42105;BME280;61464;51.472;5.712;2022-10-16T01:41:38;100854.84;;;10.89;100.00
42105;BME280;61464;51.472;5.712;2022-10-16T01:44:14;100858.53;;;10.86;100.00
42105;BME280;61464;51.472;5.712;2022-10-16T01:46:43;100856.63;;;10.97;100.00
42105;BME280;61464;51.472;5.712;2022-10-16T01:49:12;100870.44;;;10.97;100.00
42105;BME280;61464;51.472;5.712;2022-10-16T01:51:39;100862.66;;;10.97;100.00
42105;BME280;61464;51.472;5.712;2022-10-16T01:54:08;100863.59;;;10.96;100.00
42105;BME280;61464;51.472;5.712;2022-10-16T01:56:36;100856.63;;;10.97;100.00
42105;BME280;61464;51.472;5.712;2022-10-16T01:59:17;100859.88;;;10.99;100.00
42105;BME280;61464;51.472;5.712;2022-10-16T02:01:51;100863.44;;;10.98;100.00
42105;BME280;61464;51.472;5.712;2022-10-16T02:04:43;100865.91;;;10.99;100.00
42105;BME280;61464;51.472;5.712;2022-10-16T02:07:11;100868.34;;;11.09;100.00
42105;BME280;61464;51.472;5.712;2022-10-16T02:09:38;100876.34;;;11.16;100.00
42105;BME280;61464;51.472;5.712;2022-10-16T02:12:22;100875.34;;;11.17;100.00
42105;BME280;61464;51.472;5.712;2022-10-16T02:14:49;100872.59;;;11.18;100.00
42105;BME280;61464;51.472;5.712;2022-10-16T02:17:17;100868.06;;;11.20;100.00
42105;BME280;61464;51.472;5.712;2022-10-16T02:19:44;100865.31;;;11.22;100.00
42105;BME280;61464;51.472;5.712;2022-10-16T02:22:21;100869.19;;;11.18;100.00
42105;BME280;61464;51.472;5.712;2022-10-16T02:30:59;100858.59;;;11.11;100.00
42105;BME280;61464;51.472;5.712;2022-10-16T02:33:28;100862.31;;;11.00;100.00
42105;BME280;61464;51.472;5.712;2022-10-16T02:35:54;100863.44;;;10.98;100.00
42105;BME280;61464;51.472;5.712;2022-10-16T02:38:22;100858.53;;;10.86;100.00
42105;BME280;61464;51.472;5.712;2022-10-16T02:40:49;100860.50;;;10.93;100.00
42105;BME280;61464;51.472;5.712;2022-10-16T02:43:15;100861.97;;;10.87;100.00
42105;BME280;61464;51.472;5.712;2022-10-16T02:45:41;100874.44;;;10.83;100.00
42105;BME280;61464;51.472;5.712;2022-10-16T02:48:07;100875.75;;;10.87;100.00
42105;BME280;61464;51.472;5.712;2022-10-16T02:50:33;100874.78;;;10.88;100.00
42105;BME280;61464;51.472;5.712;2022-10-16T02:52:59;100862.41;;;10.74;100.00
42105;BME280;61464;51.472;5.712;2022-10-16T02:55:25;100864.19;;;10.74;100.00
42105;BME280;61464;51.472;5.712;2022-10-16T02:57:53;100861.44;;;10.75;100.00
42105;BME280;61464;51.472;5.712;2022-10-16T03:00:20;100860.97;;;10.80;100.00
42105;BME280;61464;51.472;5.712;2022-10-16T03:02:46;100863.53;;;10.72;100.00
42105;BME280;61464;51.472;5.712;2022-10-16T03:05:13;100855.25;;;10.76;100.00
42105;BME280;61464;51.472;5.712;2022-10-16T03:07:39;100857.16;;;10.66;100.00
42105;BME280;61464;51.472;5.712;2022-10-16T03:10:05;100870.31;;;10.64;100.00
42105;BME280;61464;51.472;5.712;2022-10-16T03:12:31;100873.22;;;10.61;100.00
42105;BME280;61464;51.472;5.712;2022-10-16T03:14:57;100869.19;;;10.67;100.00
42105;BME280;61464;51.472;5.712;2022-10-16T03:17:24;100877.50;;;10.71;100.00
42105;BME280;61464;51.472;5.712;2022-10-16T03:19:50;100878.63;;;10.76;100.00
42105;BME280;61464;51.472;5.712;2022-10-16T03:22:16;100883.53;;;10.79;100.00
42105;BME280;61464;51.472;5.712;2022-10-16T03:24:42;100888.34;;;10.74;100.00
42105;BME280;61464;51.472;5.712;2022-10-16T03:27:07;100887.28;;;10.85;100.00
42105;BME280;61464;51.472;5.712;2022-10-16T03:29:34;100894.56;;;10.81;100.00
42105;BME280;61464;51.472;5.712;2022-10-16T03:32:01;100892.47;;;10.85;100.00
42105;BME280;61464;51.472;5.712;2022-10-16T03:34:27;100903.97;;;10.82;100.00
42105;BME280;61464;51.472;5.712;2022-10-16T03:36:53;100900.28;;;10.85;100.00
42105;BME280;61464;51.472;5.712;2022-10-16T03:39:19;100890.84;;;10.84;100.00
42105;BME280;61464;51.472;5.712;2022-10-16T03:41:45;100885.50;;;10.85;100.00
42105;BME280;61464;51.472;5.712;2022-10-16T03:44:12;100892.47;;;10.85;100.00
42105;BME280;61464;51.472;5.712;2022-10-16T03:46:38;100893.16;;;10.95;100.00
42105;BME280;61464;51.472;5.712;2022-10-16T03:49:04;100896.22;;;10.99;100.00
42105;BME280;61464;51.472;5.712;2022-10-16T03:51:30;100907.94;;;11.03;100.00
42105;BME280;61464;51.472;5.712;2022-10-16T03:53:56;100897.53;;;11.03;100.00
42105;BME280;61464;51.472;5.712;2022-10-16T03:56:22;100911.03;;;11.06;100.00
42105;BME280;61464;51.472;5.712;2022-10-16T03:58:47;100911.38;;;11.03;100.00
42105;BME280;61464;51.472;5.712;2022-10-16T04:01:14;100919.34;;;11.10;100.00
42105;BME280;61464;51.472;5.712;2022-10-16T04:03:40;100906.84;;;11.14;100.00
42105;BME280;61464;51.472;5.712;2022-10-16T04:06:06;100918.19;;;11.13;100.00
42105;BME280;61464;51.472;5.712;2022-10-16T04:08:32;100911.72;;;11.17;100.00
42105;BME280;61464;51.472;5.712;2022-10-16T04:11:00;100911.88;;;11.23;100.00
42105;BME280;61464;51.472;5.712;2022-10-16T04:13:27;100912.06;;;11.22;100.00
42105;BME280;61464;51.472;5.712;2022-10-16T04:15:52;100922.25;;;11.15;100.00
42105;BME280;61464;51.472;5.712;2022-10-16T04:18:18;100920.66;;;11.14;100.00
42105;BME280;61464;51.472;5.712;2022-10-16T04:20:44;100926.34;;;11.18;100.00
42105;BME280;61464;51.472;5.712;2022-10-16T04:23:10;100920.66;;;11.22;100.00
42105;BME280;61464;51.472;5.712;2022-10-16T04:25:35;100921.31;;;11.24;100.00
42105;BME280;61464;51.472;5.712;2022-10-16T04:28:01;100928.47;;;11.22;100.00
42105;BME280;61464;51.472;5.712;2022-10-16T04:30:27;100930.72;;;11.17;100.00
42105;BME280;61464;51.472;5.712;2022-10-16T04:32:53;100928.50;;;11.31;100.00
42105;BME280;61464;51.472;5.712;2022-10-16T04:35:20;100930.75;;;11.34;100.00
42105;BME280;61464;51.472;5.712;2022-10-16T04:37:47;100930.31;;;11.38;100.00
42105;BME280;61464;51.472;5.712;2022-10-16T04:40:13;100937.25;;;11.38;100.00
42105;BME280;61464;51.472;5.712;2022-10-16T04:42:39;100935.00;;;11.43;100.00
42105;BME280;61464;51.472;5.712;2022-10-16T04:45:06;100932.25;;;11.44;100.00
42105;BME280;61464;51.472;5.712;2022-10-16T04:47:33;100930.13;;;11.40;100.00
42105;BME280;61464;51.472;5.712;2022-10-16T04:49:59;100939.56;;;11.41;100.00
42105;BME280;61464;51.472;5.712;2022-10-16T04:52:26;100954.81;;;11.36;100.00
42105;BME280;61464;51.472;5.712;2022-10-16T04:54:52;100957.41;;;11.36;100.00
42105;BME280;61464;51.472;5.712;2022-10-16T04:57:19;100952.03;;;11.29;100.00
42105;BME280;61464;51.472;5.712;2022-10-16T04:59:45;100952.53;;;11.33;100.00
42105;BME280;61464;51.472;5.712;2022-10-16T05:02:11;100959.31;;;11.25;100.00
42105;BME280;61464;51.472;5.712;2022-10-16T05:04:36;100962.09;;;11.24;100.00
42105;BME280;61464;51.472;5.712;2022-10-16T05:07:02;100955.44;;;11.30;100.00
42105;BME280;61464;51.472;5.712;2022-10-16T05:09:28;100961.91;;;11.25;100.00
42105;BME280;61464;51.472;5.712;2022-10-16T05:11:54;100962.09;;;11.24;100.00
42105;BME280;61464;51.472;5.712;2022-10-16T05:14:19;100966.00;;;11.28;100.00
42105;BME280;61464;51.472;5.712;2022-10-16T05:16:45;100968.75;;;11.26;100.00
42105;BME280;61464;51.472;5.712;2022-10-16T05:19:13;100965.03;;;11.29;100.00
42105;BME280;61464;51.472;5.712;2022-10-16T05:21:39;100972.53;;;11.32;100.00
42105;BME280;61464;51.472;5.712;2022-10-16T05:24:05;100977.34;;;11.27;100.00
42105;BME280;61464;51.472;5.712;2022-10-16T05:26:30;100981.09;;;11.24;100.00
42105;BME280;61464;51.472;5.712;2022-10-16T05:28:56;100990.69;;;11.24;100.00
42105;BME280;61464;51.472;5.712;2022-10-16T05:31:22;100998.13;;;11.19;100.00
42105;BME280;61464;51.472;5.712;2022-10-16T05:33:48;100995.53;;;11.19;100.00
42105;BME280;61464;51.472;5.712;2022-10-16T05:36:14;100991.09;;;11.11;100.00
42105;BME280;61464;51.472;5.712;2022-10-16T05:38:40;100997.31;;;11.18;100.00
42105;BME280;61464;51.472;5.712;2022-10-16T05:41:05;100994.88;;;11.17;100.00
42105;BME280;61464;51.472;5.712;2022-10-16T05:43:32;101015.13;;;11.13;100.00
42105;BME280;61464;51.472;5.712;2022-10-16T05:46:05;101017.06;;;11.11;100.00
42105;BME280;61464;51.472;5.712;2022-10-16T05:48:32;101025.53;;;11.13;100.00
42105;BME280;61464;51.472;5.712;2022-10-16T05:51:04;101019.69;;;11.11;100.00
42105;BME280;61464;51.472;5.712;2022-10-16T05:53:34;101027.78;;;11.08;100.00
42105;BME280;61464;51.472;5.712;2022-10-16T05:56:01;101032.66;;;11.11;100.00
42105;BME280;61464;51.472;5.712;2022-10-16T05:58:34;101041.41;;;11.02;100.00
42105;BME280;61464;51.472;5.712;2022-10-16T06:01:16;101049.19;;;11.02;100.00
42105;BME280;61464;51.472;5.712;2022-10-16T06:03:42;101047.91;;;11.06;100.00
42105;BME280;61464;51.472;5.712;2022-10-16T06:06:17;101042.22;;;11.02;100.00
42105;BME280;61464;51.472;5.712;2022-10-16T06:08:44;101044.69;;;11.12;100.00
42105;BME280;61464;51.472;5.712;2022-10-16T06:11:17;101057.19;;;11.08;100.00
42105;BME280;61464;51.472;5.712;2022-10-16T06:13:43;101065.63;;;11.11;100.00
42105;BME280;61464;51.472;5.712;2022-10-16T06:16:12;101077.19;;;11.16;100.00
42105;BME280;61464;51.472;5.712;2022-10-16T06:18:38;101070.53;;;11.14;100.00
42105;BME280;61464;51.472;5.712;2022-10-16T06:21:15;101082.31;;;11.00;100.00
42105;BME280;61464;51.472;5.712;2022-10-16T06:23:42;101075.50;;;11.07;100.00
42105;BME280;61464;51.472;5.712;2022-10-16T06:26:13;101076.84;;;11.11;100.00
42105;BME280;61464;51.472;5.712;2022-10-16T06:28:39;101066.94;;;11.15;100.00
42105;BME280;61464;51.472;5.712;2022-10-16T06:31:07;101078.78;;;11.09;100.00
42105;BME280;61464;51.472;5.712;2022-10-16T06:33:35;101077.44;;;11.05;100.00
42105;BME280;61464;51.472;5.712;2022-10-16T06:36:07;101085.94;;;11.15;100.00
42105;BME280;61464;51.472;5.712;2022-10-16T06:38:34;101095.69;;;11.13;100.00
42105;BME280;61464;51.472;5.712;2022-10-16T06:41:02;101099.44;;;11.19;100.00
42105;BME280;61464;51.472;5.712;2022-10-16T06:43:32;101089.22;;;11.17;100.00
42105;BME280;61464;51.472;5.712;2022-10-16T06:45:59;101098.97;;;11.23;100.00
42105;BME280;61464;51.472;5.712;2022-10-16T06:48:26;101110.22;;;11.24;100.00
42105;BME280;61464;51.472;5.712;2022-10-16T06:51:11;101117.88;;;11.34;100.00
42105;BME280;61464;51.472;5.712;2022-10-16T06:53:52;101127.00;;;11.38;100.00
42105;BME280;61464;51.472;5.712;2022-10-16T06:56:27;101131.44;;;11.45;100.00
42105;BME280;61464;51.472;5.712;2022-10-16T06:58:54;101130.00;;;11.51;100.00
42105;BME280;61464;51.472;5.712;2022-10-16T07:01:22;101140.78;;;11.64;100.00
42105;BME280;61464;51.472;5.712;2022-10-16T07:03:49;101133.44;;;11.60;100.00
42105;BME280;61464;51.472;5.712;2022-10-16T07:06:19;101144.25;;;11.73;100.00
42105;BME280;61464;51.472;5.712;2022-10-16T07:08:47;101138.06;;;11.74;100.00
42105;BME280;61464;51.472;5.712;2022-10-16T07:11:17;101150.28;;;11.82;100.00
42105;BME280;61464;51.472;5.712;2022-10-16T07:13:44;101150.00;;;11.93;100.00
42105;BME280;61464;51.472;5.712;2022-10-16T07:16:24;101162.41;;;11.99;100.00
42105;BME280;61464;51.472;5.712;2022-10-16T07:18:50;101164.06;;;12.08;100.00
42105;BME280;61464;51.472;5.712;2022-10-16T07:21:22;101164.72;;;12.11;100.00
42105;BME280;61464;51.472;5.712;2022-10-16T07:23:53;101172.03;;;12.15;100.00
42105;BME280;61464;51.472;5.712;2022-10-16T07:26:19;101173.72;;;12.24;100.00
42105;BME280;61464;51.472;5.712;2022-10-16T07:28:45;101165.91;;;12.24;100.00
42105;BME280;61464;51.472;5.712;2022-10-16T07:31:13;101173.41;;;12.36;100.00
42105;BME280;61464;51.472;5.712;2022-10-16T07:33:41;101174.56;;;12.41;100.00
42105;BME280;61464;51.472;5.712;2022-10-16T07:36:09;101183.66;;;12.45;100.00
42105;BME280;61464;51.472;5.712;2022-10-16T07:38:34;101180.06;;;12.46;100.00
42105;BME280;61464;51.472;5.712;2022-10-16T07:41:04;101196.06;;;12.52;100.00
42105;BME280;61464;51.472;5.712;2022-10-16T07:43:31;101194.13;;;12.62;100.00
42105;BME280;61464;51.472;5.712;2022-10-16T07:45:57;101202.75;;;12.71;100.00
42105;BME280;61464;51.472;5.712;2022-10-16T07:48:29;101210.91;;;12.76;100.00
42105;BME280;61464;51.472;5.712;2022-10-16T07:51:00;101208.75;;;12.79;100.00
42105;BME280;61464;51.472;5.712;2022-10-16T07:53:27;101211.22;;;12.89;100.00
42105;BME280;61464;51.472;5.712;2022-10-16T07:55:58;101222.44;;;12.98;100.00
42105;BME280;61464;51.472;5.712;2022-10-16T07:58:25;101225.56;;;13.01;100.00
42105;BME280;61464;51.472;5.712;2022-10-16T08:00:50;101237.63;;;13.11;100.00
42105;BME280;61464;51.472;5.712;2022-10-16T08:03:16;101235.47;;;13.22;100.00
42105;BME280;61464;51.472;5.712;2022-10-16T08:05:42;101245.75;;;13.24;100.00
42105;BME280;61464;51.472;5.712;2022-10-16T08:08:14;101254.22;;;13.26;100.00
42105;BME280;61464;51.472;5.712;2022-10-16T08:10:40;101245.13;;;13.30;100.00
42105;BME280;61464;51.472;5.712;2022-10-16T08:13:06;101262.22;;;13.33;100.00
42105;BME280;61464;51.472;5.712;2022-10-16T08:15:31;101260.09;;;13.53;100.00
42105;BME280;61464;51.472;5.712;2022-10-16T08:18:03;101264.34;;;13.45;100.00
42105;BME280;61464;51.472;5.712;2022-10-16T08:20:31;101264.81;;;13.49;100.00
42105;BME280;61464;51.472;5.712;2022-10-16T08:22:58;101263.69;;;13.52;100.00
42105;BME280;61464;51.472;5.712;2022-10-16T08:25:24;101270.50;;;13.61;100.00
42105;BME280;61464;51.472;5.712;2022-10-16T08:27:50;101263.97;;;13.65;100.00
42105;BME280;61464;51.472;5.712;2022-10-16T08:30:18;101262.81;;;13.76;100.00
42105;BME280;61464;51.472;5.712;2022-10-16T08:32:45;101277.47;;;13.85;100.00
42105;BME280;61464;51.472;5.712;2022-10-16T08:35:12;101280.56;;;13.88;100.00
42105;BME280;61464;51.472;5.712;2022-10-16T08:37:38;101277.13;;;13.88;100.00
42105;BME280;61464;51.472;5.712;2022-10-16T08:40:07;101276.13;;;13.97;100.00
42105;BME280;61464;51.472;5.712;2022-10-16T08:48:21;101289.66;;;14.09;100.00
42105;BME280;61464;51.472;5.712;2022-10-16T08:50:52;101304.63;;;14.15;100.00
42105;BME280;61464;51.472;5.712;2022-10-16T08:53:28;101294.34;;;14.14;100.00
42105;BME280;61464;51.472;5.712;2022-10-16T08:55:55;101308.38;;;14.13;100.00
42105;BME280;61464;51.472;5.712;2022-10-16T08:58:26;101298.78;;;14.13;100.00
42105;BME280;61464;51.472;5.712;2022-10-16T09:00:59;101315.88;;;14.24;100.00
42105;BME280;61464;51.472;5.712;2022-10-16T09:12:52;101321.28;;;14.54;99.43
42105;BME280;61464;51.472;5.712;2022-10-16T09:16:04;101326.50;;;14.62;98.41
42105;BME280;61464;51.472;5.712;2022-10-16T09:18:43;101333.47;;;14.69;98.10
42105;BME280;61464;51.472;5.712;2022-10-16T09:21:20;101327.44;;;14.69;98.43
42105;BME280;61464;51.472;5.712;2022-10-16T09:23:47;101332.47;;;14.79;97.14
42105;BME280;61464;51.472;5.712;2022-10-16T09:26:15;101333.44;;;14.78;96.60
42105;BME280;61464;51.472;5.712;2022-10-16T09:28:42;101338.28;;;14.89;96.31
42105;BME280;61464;51.472;5.712;2022-10-16T09:31:22;101348.41;;;15.15;95.05
42105;BME280;61464;51.472;5.712;2022-10-16T09:33:59;101353.19;;;15.12;94.76
42105;BME280;61464;51.472;5.712;2022-10-16T09:36:28;101347.84;;;15.28;94.36
42105;BME280;61464;51.472;5.712;2022-10-16T09:39:10;101344.09;;;15.22;93.53
42105;BME280;61464;51.472;5.712;2022-10-16T09:41:40;101349.44;;;15.29;93.35
42105;BME280;61464;51.472;5.712;2022-10-16T09:46:45;101346.38;;;15.25;91.84
42105;BME280;61464;51.472;5.712;2022-10-16T09:49:25;101344.78;;;15.39;91.72
42105;BME280;61464;51.472;5.712;2022-10-16T09:52:12;101335.25;;;15.46;90.86
42105;BME280;61464;51.472;5.712;2022-10-16T09:57:19;101346.19;;;15.73;89.85
42105;BME280;61464;51.472;5.712;2022-10-16T09:59:53;101348.91;;;15.95;88.83
42105;BME280;61464;51.472;5.712;2022-10-16T10:02:31;101350.72;;;15.79;86.75
42105;BME280;61464;51.472;5.712;2022-10-16T10:04:59;101351.91;;;15.92;86.37
42105;BME280;61464;51.472;5.712;2022-10-16T10:07:31;101344.59;;;16.02;84.27
42105;BME280;61464;51.472;5.712;2022-10-16T10:10:01;101351.09;;;16.06;82.73
42105;BME280;61464;51.472;5.712;2022-10-16T10:12:28;101343.50;;;16.11;82.77
42105;BME280;61464;51.472;5.712;2022-10-16T10:15:06;101346.47;;;16.23;82.92
42105;BME280;61464;51.472;5.712;2022-10-16T10:17:32;101348.91;;;16.39;83.18
42105;BME280;61464;51.472;5.712;2022-10-16T10:23:01;101366.97;;;16.34;81.31
42105;BME280;61464;51.472;5.712;2022-10-16T10:31:58;101373.69;;;16.37;80.42
42105;BME280;61464;51.472;5.712;2022-10-16T10:45:59;101389.44;;;16.58;80.90
42105;BME280;61464;51.472;5.712;2022-10-16T10:57:38;101390.72;;;16.62;78.63
42105;BME280;61464;51.472;5.712;2022-10-16T11:00:34;101392.38;;;16.19;80.79
42105;BME280;61464;51.472;5.712;2022-10-16T11:06:12;101391.63;;;16.40;79.98
42105;BME280;61464;51.472;5.712;2022-10-16T11:08:51;101393.34;;;16.18;80.61
42105;BME280;61464;51.472;5.712;2022-10-16T11:11:58;101399.44;;;15.80;81.87
42105;BME280;61464;51.472;5.712;2022-10-16T11:17:13;101395.47;;;15.61;83.72
42105;BME280;61464;51.472;5.712;2022-10-16T11:22:34;101397.34;;;15.76;83.93
42105;BME280;61464;51.472;5.712;2022-10-16T11:25:27;101397.00;;;15.56;83.86
42105;BME280;61464;51.472;5.712;2022-10-16T11:28:20;101390.94;;;15.55;83.82
42105;BME280;61464;51.472;5.712;2022-10-16T11:34:17;101399.88;;;16.37;80.35
42105;BME280;61464;51.472;5.712;2022-10-16T11:37:08;101392.44;;;16.40;78.11
42105;BME280;61464;51.472;5.712;2022-10-16T11:39:38;101391.91;;;16.45;78.24
42105;BME280;61464;51.472;5.712;2022-10-16T11:42:29;101393.81;;;16.21;79.03
42105;BME280;61464;51.472;5.712;2022-10-16T11:47:54;101396.78;;;16.33;80.20
42105;BME280;61464;51.472;5.712;2022-10-16T11:53:46;101401.34;;;17.27;76.75
42105;BME280;61464;51.472;5.712;2022-10-16T11:56:19;101407.84;;;17.74;73.24
42105;BME280;61464;51.472;5.712;2022-10-16T11:59:07;101407.22;;;18.00;72.08
42105;BME280;61464;51.472;5.712;2022-10-16T12:01:44;101410.81;;;17.71;73.12
42105;BME280;61464;51.472;5.712;2022-10-16T12:04:33;101406.28;;;17.58;72.33
42105;BME280;61464;51.472;5.712;2022-10-16T12:07:24;101416.56;;;17.81;71.28
42105;BME280;61464;51.472;5.712;2022-10-16T12:09:52;101409.72;;;17.59;70.59
42105;BME280;61464;51.472;5.712;2022-10-16T12:12:39;101410.47;;;18.02;70.17
42105;BME280;61464;51.472;5.712;2022-10-16T12:15:21;101410.88;;;17.99;70.34
42105;BME280;61464;51.472;5.712;2022-10-16T12:17:47;101407.22;;;18.00;69.31
42105;BME280;61464;51.472;5.712;2022-10-16T12:22:51;101420.00;;;18.03;68.36
42105;BME280;61464;51.472;5.712;2022-10-16T12:25:39;101424.22;;;18.04;67.65
42105;BME280;61464;51.472;5.712;2022-10-16T12:30:42;101424.00;;;17.99;68.73
42105;BME280;61464;51.472;5.712;2022-10-16T12:33:26;101416.97;;;17.78;70.11
42105;BME280;61464;51.472;5.712;2022-10-16T12:35:53;101411.69;;;18.00;70.15
42105;BME280;61464;51.472;5.712;2022-10-16T12:38:47;101412.25;;;18.23;69.53
42105;BME280;61464;51.472;5.712;2022-10-16T12:41:31;101412.16;;;18.45;69.31
42105;BME280;61464;51.472;5.712;2022-10-16T12:43:59;101422.50;;;18.18;70.22
42105;BME280;61464;51.472;5.712;2022-10-16T12:51:55;101405.06;;;17.82;70.24
42105;BME280;61464;51.472;5.712;2022-10-16T12:54:36;101408.88;;;18.01;69.43
42105;BME280;61464;51.472;5.712;2022-10-16T12:59:58;101415.50;;;17.97;70.75
42105;BME280;61464;51.472;5.712;2022-10-16T13:02:47;101417.72;;;17.50;72.74
42105;BME280;61464;51.472;5.712;2022-10-16T13:11:48;101409.41;;;17.47;72.85
42105;BME280;61464;51.472;5.712;2022-10-16T13:20:16;101397.03;;;18.19;70.00
42105;BME280;61464;51.472;5.712;2022-10-16T13:26:29;101410.13;;;18.47;68.78
42105;BME280;61464;51.472;5.712;2022-10-16T13:29:01;101407.56;;;19.02;66.83
42105;BME280;61464;51.472;5.712;2022-10-16T13:31:28;101418.63;;;18.42;66.50
42105;BME280;61464;51.472;5.712;2022-10-16T13:33:59;101414.16;;;18.43;67.95
42105;BME280;61464;51.472;5.712;2022-10-16T13:36:34;101410.72;;;18.07;70.16
42105;BME280;61464;51.472;5.712;2022-10-16T13:39:26;101425.75;;;17.92;70.46
42105;BME280;61464;51.472;5.712;2022-10-16T13:42:05;101428.47;;;17.99;70.98
42105;BME280;61464;51.472;5.712;2022-10-16T13:44:43;101439.59;;;18.01;71.38
42105;BME280;61464;51.472;5.712;2022-10-16T13:47:24;101438.28;;;17.90;71.66
42105;BME280;61464;51.472;5.712;2022-10-16T13:50:04;101433.00;;;17.90;73.06
42105;BME280;61464;51.472;5.712;2022-10-16T13:52:31;101433.78;;;18.12;72.66
42105;BME280;61464;51.472;5.712;2022-10-16T13:54:57;101443.00;;;18.01;72.19
42105;BME280;61464;51.472;5.712;2022-10-16T13:57:24;101442.13;;;17.94;72.69
42105;BME280;61464;51.472;5.712;2022-10-16T13:59:51;101443.91;;;17.87;72.80
42105;BME280;61464;51.472;5.712;2022-10-16T14:02:37;101444.59;;;17.74;73.15
42105;BME280;61464;51.472;5.712;2022-10-16T14:05:08;101442.59;;;17.76;72.65
42105;BME280;61464;51.472;5.712;2022-10-16T14:07:36;101435.16;;;17.58;74.01
42105;BME280;61464;51.472;5.712;2022-10-16T14:10:27;101441.78;;;17.54;74.79
42105;BME280;61464;51.472;5.712;2022-10-16T14:13:19;101441.16;;;17.52;76.17
42105;BME280;61464;51.472;5.712;2022-10-16T14:15:51;101447.84;;;17.55;76.08
42105;BME280;61464;51.472;5.712;2022-10-16T14:18:22;101450.88;;;17.37;76.75
42105;BME280;61464;51.472;5.712;2022-10-16T14:20:50;101457.25;;;17.27;77.79
42105;BME280;61464;51.472;5.712;2022-10-16T14:23:22;101452.94;;;17.20;77.75
42105;BME280;61464;51.472;5.712;2022-10-16T14:25:49;101443.97;;;17.14;78.53
42105;BME280;61464;51.472;5.712;2022-10-16T14:28:17;101438.31;;;17.11;78.33
42105;BME280;61464;51.472;5.712;2022-10-16T14:31:31;101432.13;;;17.18;79.17
42105;BME280;61464;51.472;5.712;2022-10-16T14:33:59;101431.44;;;17.09;79.63
42105;BME280;61464;51.472;5.712;2022-10-16T14:36:27;101428.06;;;17.16;79.84
42105;BME280;61464;51.472;5.712;2022-10-16T14:39:13;101423.56;;;17.09;79.99
42105;BME280;61464;51.472;5.712;2022-10-16T14:41:48;101426.28;;;17.01;80.79
42105;BME280;61464;51.472;5.712;2022-10-16T14:44:14;101420.88;;;17.03;80.13
42105;BME280;61464;51.472;5.712;2022-10-16T14:46:43;101414.09;;;17.08;80.53
42105;BME280;61464;51.472;5.712;2022-10-16T14:51:37;101421.50;;;17.26;79.63
42105;BME280;61464;51.472;5.712;2022-10-16T14:54:04;101425.78;;;17.49;79.02
42105;BME280;61464;51.472;5.712;2022-10-16T14:56:53;101434.72;;;17.55;78.11
42105;BME280;61464;51.472;5.712;2022-10-16T14:59:51;101423.84;;;17.58;78.82